This is the latest recevied weather packets stored in our database for station/object G6FCI. If no packets are shown the sender has not sent any weather packets the latest 10 day(s).
| Time | Temp. | Humidity | Pressure | Rain* | Wind** | Luminosity | Snow |
|---|---|---|---|---|---|---|---|
| 1777086003 | 7.78° C | 81% | 1021.1 hPa | 0 mm | - | - | - |
| 1777082043 | 7.78° C | 82% | 1021.4 hPa | 0 mm | - | - | - |
| 1777080423 | 8.33° C | 82% | 1021.6 hPa | 0 mm | - | - | - |
| 1777078803 | 8.33° C | 82% | 1021.9 hPa | 0 mm | - | - | - |
| 1777077903 | 7.78° C | 83% | 1021.9 hPa | 0 mm | - | - | - |
| 1777075764 | 7.78° C | 83% | 1022.3 hPa | 0 mm | - | - | - |
| 1777074303 | 7.78° C | 83% | 1022.5 hPa | 0 mm | - | - | - |
| 1777073763 | 7.78° C | 83% | 1022.4 hPa | 0 mm | - | - | - |
| 1777072704 | 7.78° C | 80% | 1022.4 hPa | 0 mm | - | - | - |
| 1777070703 | 8.89° C | 80% | 1022.6 hPa | 0 mm | - | - | - |
| 1777070163 | 8.89° C | 80% | 1022.6 hPa | 0 mm | - | - | - |
| 1777064943 | 11.11° C | 69% | 1022.6 hPa | 0 mm | - | - | - |
| 1777063503 | 11.67° C | 64% | 1022.7 hPa | 0 mm | - | - | - |
| 1777057203 | 15° C | 53% | 1022.5 hPa | 0 mm | - | - | - |
| 1777056843 | 15° C | 53% | 1022.5 hPa | 0 mm | - | - | - |
| 1777055763 | 15.56° C | 51% | 1022.6 hPa | 0 mm | - | - | - |
| 1777053243 | 17.22° C | 51% | 1022.7 hPa | 0 mm | - | - | - |
| 1777051623 | 17.22° C | 52% | 1022.7 hPa | 0 mm | - | - | - |
| 1777050543 | 17.78° C | 52% | 1022.8 hPa | 0 mm | - | - | - |
| 1777049103 | 17.78° C | 53% | 1023 hPa | 0 mm | - | - | - |
| 1777048563 | 17.78° C | 53% | 1023.2 hPa | 0 mm | - | - | - |
| 1777043883 | 21.11° C | 44% | 1023.6 hPa | 0 mm | - | - | - |
| 1777042803 | 22.78° C | 43% | 1023.8 hPa | 0 mm | - | - | - |
| 1777040283 | 22.78° C | 38% | 1024.1 hPa | 0 mm | - | - | - |
| 1777037763 | 21.67° C | 42% | 1024.7 hPa | 0 mm | - | - | - |
* Rain latest hour (hover to see other rain measurements)
** Current wind speed in m/s (hover to see current wind gust speed)